sensor_id;sensor_type;location;lat;lon;timestamp;P1;durP1;ratioP1;P2;durP2;ratioP2
12367;SDS011;6248;49.812;6.620;2023-07-02T00:01:39;3.60;;;2.70;;
12367;SDS011;6248;49.812;6.620;2023-07-02T00:04:06;3.58;;;2.63;;
12367;SDS011;6248;49.812;6.620;2023-07-02T00:06:34;6.63;;;2.97;;
12367;SDS011;6248;49.812;6.620;2023-07-02T00:09:05;5.30;;;3.03;;
12367;SDS011;6248;49.812;6.620;2023-07-02T00:11:32;4.72;;;3.05;;
12367;SDS011;6248;49.812;6.620;2023-07-02T00:14:01;5.30;;;3.35;;
12367;SDS011;6248;49.812;6.620;2023-07-02T00:16:28;5.20;;;3.58;;
12367;SDS011;6248;49.812;6.620;2023-07-02T00:18:55;6.35;;;3.53;;
12367;SDS011;6248;49.812;6.620;2023-07-02T00:21:22;3.92;;;3.13;;
12367;SDS011;6248;49.812;6.620;2023-07-02T00:23:53;4.10;;;3.15;;
12367;SDS011;6248;49.812;6.620;2023-07-02T00:26:22;4.95;;;3.67;;
12367;SDS011;6248;49.812;6.620;2023-07-02T00:28:50;6.82;;;4.00;;
12367;SDS011;6248;49.812;6.620;2023-07-02T00:31:18;5.32;;;4.00;;
12367;SDS011;6248;49.812;6.620;2023-07-02T00:33:45;7.72;;;4.30;;
12367;SDS011;6248;49.812;6.620;2023-07-02T00:36:13;8.77;;;4.38;;
12367;SDS011;6248;49.812;6.620;2023-07-02T00:38:40;8.88;;;4.22;;
12367;SDS011;6248;49.812;6.620;2023-07-02T00:41:08;8.13;;;4.35;;
12367;SDS011;6248;49.812;6.620;2023-07-02T00:43:35;7.63;;;4.15;;
12367;SDS011;6248;49.812;6.620;2023-07-02T00:46:04;7.50;;;4.28;;
12367;SDS011;6248;49.812;6.620;2023-07-02T00:48:33;6.28;;;4.43;;
12367;SDS011;6248;49.812;6.620;2023-07-02T00:51:00;9.18;;;4.50;;
12367;SDS011;6248;49.812;6.620;2023-07-02T00:53:27;6.47;;;4.40;;
12367;SDS011;6248;49.812;6.620;2023-07-02T00:55:54;6.38;;;4.53;;
12367;SDS011;6248;49.812;6.620;2023-07-02T00:58:21;6.78;;;4.65;;
12367;SDS011;6248;49.812;6.620;2023-07-02T01:00:49;7.72;;;4.93;;
12367;SDS011;6248;49.812;6.620;2023-07-02T01:03:16;10.55;;;4.90;;
12367;SDS011;6248;49.812;6.620;2023-07-02T01:05:44;7.60;;;4.88;;
12367;SDS011;6248;49.812;6.620;2023-07-02T01:08:11;7.25;;;4.80;;
12367;SDS011;6248;49.812;6.620;2023-07-02T01:10:39;7.20;;;4.60;;
12367;SDS011;6248;49.812;6.620;2023-07-02T01:13:08;6.93;;;4.68;;
12367;SDS011;6248;49.812;6.620;2023-07-02T01:15:36;7.47;;;5.05;;
12367;SDS011;6248;49.812;6.620;2023-07-02T01:18:04;6.18;;;4.65;;
12367;SDS011;6248;49.812;6.620;2023-07-02T01:20:33;14.30;;;4.95;;
12367;SDS011;6248;49.812;6.620;2023-07-02T01:23:01;8.05;;;5.20;;
12367;SDS011;6248;49.812;6.620;2023-07-02T01:25:28;9.73;;;5.78;;
12367;SDS011;6248;49.812;6.620;2023-07-02T01:27:56;7.32;;;5.43;;
12367;SDS011;6248;49.812;6.620;2023-07-02T01:30:23;8.02;;;5.57;;
12367;SDS011;6248;49.812;6.620;2023-07-02T01:32:51;9.95;;;5.70;;
12367;SDS011;6248;49.812;6.620;2023-07-02T01:35:18;8.38;;;6.32;;
12367;SDS011;6248;49.812;6.620;2023-07-02T01:37:47;8.30;;;5.75;;
12367;SDS011;6248;49.812;6.620;2023-07-02T01:40:14;13.10;;;6.63;;
12367;SDS011;6248;49.812;6.620;2023-07-02T01:42:41;9.65;;;6.70;;
12367;SDS011;6248;49.812;6.620;2023-07-02T01:45:08;11.27;;;6.75;;
12367;SDS011;6248;49.812;6.620;2023-07-02T01:47:36;9.25;;;6.95;;
12367;SDS011;6248;49.812;6.620;2023-07-02T01:50:03;10.13;;;7.35;;
12367;SDS011;6248;49.812;6.620;2023-07-02T01:52:31;10.00;;;6.90;;
12367;SDS011;6248;49.812;6.620;2023-07-02T01:55:00;11.52;;;6.28;;
12367;SDS011;6248;49.812;6.620;2023-07-02T01:57:27;12.40;;;6.90;;
12367;SDS011;6248;49.812;6.620;2023-07-02T01:59:56;10.73;;;7.13;;
12367;SDS011;6248;49.812;6.620;2023-07-02T02:02:23;10.88;;;6.82;;
12367;SDS011;6248;49.812;6.620;2023-07-02T02:04:50;10.55;;;6.22;;
12367;SDS011;6248;49.812;6.620;2023-07-02T02:07:17;8.82;;;6.20;;
12367;SDS011;6248;49.812;6.620;2023-07-02T02:09:44;8.57;;;6.20;;
12367;SDS011;6248;49.812;6.620;2023-07-02T02:12:13;11.75;;;6.20;;
12367;SDS011;6248;49.812;6.620;2023-07-02T02:14:40;9.68;;;6.57;;
12367;SDS011;6248;49.812;6.620;2023-07-02T02:17:07;11.32;;;6.70;;
12367;SDS011;6248;49.812;6.620;2023-07-02T02:19:34;9.43;;;6.18;;
12367;SDS011;6248;49.812;6.620;2023-07-02T02:22:02;8.75;;;6.15;;
12367;SDS011;6248;49.812;6.620;2023-07-02T02:24:29;7.80;;;6.15;;
12367;SDS011;6248;49.812;6.620;2023-07-02T02:26:56;9.00;;;6.60;;
12367;SDS011;6248;49.812;6.620;2023-07-02T02:29:24;9.23;;;6.47;;
12367;SDS011;6248;49.812;6.620;2023-07-02T02:31:51;11.02;;;6.28;;
12367;SDS011;6248;49.812;6.620;2023-07-02T02:34:19;10.52;;;7.05;;
12367;SDS011;6248;49.812;6.620;2023-07-02T02:36:46;11.63;;;7.25;;
12367;SDS011;6248;49.812;6.620;2023-07-02T02:39:13;10.73;;;6.95;;
12367;SDS011;6248;49.812;6.620;2023-07-02T02:41:40;10.40;;;6.97;;
12367;SDS011;6248;49.812;6.620;2023-07-02T02:44:07;9.05;;;6.72;;
12367;SDS011;6248;49.812;6.620;2023-07-02T02:46:36;16.08;;;7.47;;
12367;SDS011;6248;49.812;6.620;2023-07-02T02:49:03;10.13;;;6.60;;
12367;SDS011;6248;49.812;6.620;2023-07-02T02:51:31;10.63;;;7.32;;
12367;SDS011;6248;49.812;6.620;2023-07-02T02:53:58;14.73;;;7.18;;
12367;SDS011;6248;49.812;6.620;2023-07-02T02:56:25;10.35;;;7.70;;
12367;SDS011;6248;49.812;6.620;2023-07-02T02:58:52;12.35;;;7.68;;
12367;SDS011;6248;49.812;6.620;2023-07-02T03:01:20;10.73;;;7.78;;
12367;SDS011;6248;49.812;6.620;2023-07-02T03:03:48;14.95;;;8.38;;
12367;SDS011;6248;49.812;6.620;2023-07-02T03:06:15;15.18;;;9.30;;
12367;SDS011;6248;49.812;6.620;2023-07-02T03:08:43;10.60;;;8.10;;
12367;SDS011;6248;49.812;6.620;2023-07-02T03:11:10;13.27;;;8.40;;
12367;SDS011;6248;49.812;6.620;2023-07-02T03:13:37;11.60;;;8.35;;
12367;SDS011;6248;49.812;6.620;2023-07-02T03:16:04;14.15;;;8.55;;
12367;SDS011;6248;49.812;6.620;2023-07-02T03:18:32;12.75;;;8.52;;
12367;SDS011;6248;49.812;6.620;2023-07-02T03:21:00;14.52;;;9.10;;
12367;SDS011;6248;49.812;6.620;2023-07-02T03:23:27;15.40;;;9.05;;
12367;SDS011;6248;49.812;6.620;2023-07-02T03:25:55;12.82;;;9.05;;
12367;SDS011;6248;49.812;6.620;2023-07-02T03:28:22;15.63;;;9.07;;
12367;SDS011;6248;49.812;6.620;2023-07-02T03:30:49;15.07;;;9.20;;
12367;SDS011;6248;49.812;6.620;2023-07-02T03:33:16;14.25;;;9.30;;
12367;SDS011;6248;49.812;6.620;2023-07-02T03:35:43;13.35;;;8.70;;
12367;SDS011;6248;49.812;6.620;2023-07-02T03:38:12;17.55;;;9.75;;
12367;SDS011;6248;49.812;6.620;2023-07-02T03:40:40;13.55;;;9.13;;
12367;SDS011;6248;49.812;6.620;2023-07-02T03:43:07;12.55;;;9.23;;
12367;SDS011;6248;49.812;6.620;2023-07-02T03:45:34;13.88;;;9.90;;
12367;SDS011;6248;49.812;6.620;2023-07-02T03:48:01;14.93;;;10.07;;
12367;SDS011;6248;49.812;6.620;2023-07-02T03:50:28;16.45;;;10.43;;
12367;SDS011;6248;49.812;6.620;2023-07-02T03:52:55;14.05;;;9.75;;
12367;SDS011;6248;49.812;6.620;2023-07-02T03:55:24;16.73;;;10.65;;
12367;SDS011;6248;49.812;6.620;2023-07-02T03:57:51;15.88;;;10.27;;
12367;SDS011;6248;49.812;6.620;2023-07-02T04:00:18;14.52;;;10.55;;
12367;SDS011;6248;49.812;6.620;2023-07-02T04:02:46;15.65;;;9.82;;
12367;SDS011;6248;49.812;6.620;2023-07-02T04:05:13;15.30;;;9.90;;
12367;SDS011;6248;49.812;6.620;2023-07-02T04:07:40;13.82;;;9.82;;
12367;SDS011;6248;49.812;6.620;2023-07-02T04:10:08;16.90;;;10.52;;
12367;SDS011;6248;49.812;6.620;2023-07-02T04:12:36;14.52;;;10.13;;
12367;SDS011;6248;49.812;6.620;2023-07-02T04:15:04;14.40;;;10.50;;
12367;SDS011;6248;49.812;6.620;2023-07-02T04:17:31;13.73;;;9.80;;
12367;SDS011;6248;49.812;6.620;2023-07-02T04:19:59;16.40;;;10.80;;
12367;SDS011;6248;49.812;6.620;2023-07-02T04:22:28;14.30;;;10.90;;
12367;SDS011;6248;49.812;6.620;2023-07-02T04:24:55;15.52;;;10.65;;
12367;SDS011;6248;49.812;6.620;2023-07-02T04:27:22;17.98;;;10.55;;
12367;SDS011;6248;49.812;6.620;2023-07-02T04:29:52;19.25;;;11.38;;
12367;SDS011;6248;49.812;6.620;2023-07-02T04:32:20;19.08;;;10.85;;
12367;SDS011;6248;49.812;6.620;2023-07-02T04:34:48;16.08;;;10.10;;
12367;SDS011;6248;49.812;6.620;2023-07-02T04:37:15;18.50;;;11.65;;
12367;SDS011;6248;49.812;6.620;2023-07-02T04:39:42;16.25;;;11.23;;
12367;SDS011;6248;49.812;6.620;2023-07-02T04:42:09;18.55;;;11.48;;
12367;SDS011;6248;49.812;6.620;2023-07-02T04:44:39;19.90;;;11.40;;
12367;SDS011;6248;49.812;6.620;2023-07-02T04:47:09;17.40;;;11.07;;
12367;SDS011;6248;49.812;6.620;2023-07-02T04:49:36;19.45;;;11.13;;
12367;SDS011;6248;49.812;6.620;2023-07-02T04:52:04;17.23;;;12.02;;
12367;SDS011;6248;49.812;6.620;2023-07-02T04:54:31;17.52;;;11.60;;
12367;SDS011;6248;49.812;6.620;2023-07-02T04:56:58;15.88;;;11.60;;
12367;SDS011;6248;49.812;6.620;2023-07-02T04:59:25;21.60;;;11.13;;
12367;SDS011;6248;49.812;6.620;2023-07-02T05:01:53;16.77;;;11.57;;
12367;SDS011;6248;49.812;6.620;2023-07-02T05:04:21;17.23;;;11.60;;
12367;SDS011;6248;49.812;6.620;2023-07-02T05:06:48;17.50;;;11.73;;
12367;SDS011;6248;49.812;6.620;2023-07-02T05:09:15;18.65;;;12.43;;
12367;SDS011;6248;49.812;6.620;2023-07-02T05:11:42;19.40;;;12.18;;
12367;SDS011;6248;49.812;6.620;2023-07-02T05:14:10;21.47;;;12.53;;
12367;SDS011;6248;49.812;6.620;2023-07-02T05:16:37;20.50;;;12.88;;
12367;SDS011;6248;49.812;6.620;2023-07-02T05:19:04;24.60;;;13.55;;
12367;SDS011;6248;49.812;6.620;2023-07-02T05:21:32;20.27;;;12.75;;
12367;SDS011;6248;49.812;6.620;2023-07-02T05:24:00;21.52;;;13.60;;
12367;SDS011;6248;49.812;6.620;2023-07-02T05:26:27;18.60;;;12.90;;
12367;SDS011;6248;49.812;6.620;2023-07-02T05:28:54;20.23;;;13.32;;
12367;SDS011;6248;49.812;6.620;2023-07-02T05:31:21;20.15;;;13.25;;
12367;SDS011;6248;49.812;6.620;2023-07-02T05:33:49;23.05;;;13.88;;
12367;SDS011;6248;49.812;6.620;2023-07-02T05:36:16;22.90;;;13.98;;
12367;SDS011;6248;49.812;6.620;2023-07-02T05:38:44;24.92;;;14.70;;
12367;SDS011;6248;49.812;6.620;2023-07-02T05:41:17;22.65;;;13.80;;
12367;SDS011;6248;49.812;6.620;2023-07-02T05:43:44;23.25;;;14.18;;
12367;SDS011;6248;49.812;6.620;2023-07-02T05:46:11;22.90;;;14.75;;
12367;SDS011;6248;49.812;6.620;2023-07-02T05:48:39;18.85;;;13.35;;
12367;SDS011;6248;49.812;6.620;2023-07-02T05:51:06;23.40;;;14.50;;
12367;SDS011;6248;49.812;6.620;2023-07-02T05:53:34;24.10;;;15.38;;
12367;SDS011;6248;49.812;6.620;2023-07-02T05:56:02;25.80;;;15.57;;
12367;SDS011;6248;49.812;6.620;2023-07-02T05:58:30;21.20;;;14.93;;
12367;SDS011;6248;49.812;6.620;2023-07-02T06:00:57;25.13;;;15.70;;
12367;SDS011;6248;49.812;6.620;2023-07-02T06:03:24;25.13;;;16.23;;
12367;SDS011;6248;49.812;6.620;2023-07-02T06:05:51;24.33;;;15.57;;
12367;SDS011;6248;49.812;6.620;2023-07-02T06:08:18;26.48;;;17.00;;
12367;SDS011;6248;49.812;6.620;2023-07-02T06:10:46;23.55;;;15.55;;
12367;SDS011;6248;49.812;6.620;2023-07-02T06:13:14;25.98;;;16.35;;
12367;SDS011;6248;49.812;6.620;2023-07-02T06:15:42;26.10;;;16.35;;
12367;SDS011;6248;49.812;6.620;2023-07-02T06:18:09;24.85;;;16.67;;
12367;SDS011;6248;49.812;6.620;2023-07-02T06:20:36;25.23;;;16.00;;
12367;SDS011;6248;49.812;6.620;2023-07-02T06:23:03;23.50;;;16.65;;
12367;SDS011;6248;49.812;6.620;2023-07-02T06:25:31;25.92;;;15.82;;
12367;SDS011;6248;49.812;6.620;2023-07-02T06:27:58;29.20;;;16.95;;
12367;SDS011;6248;49.812;6.620;2023-07-02T06:30:27;25.42;;;16.48;;
12367;SDS011;6248;49.812;6.620;2023-07-02T06:32:54;24.92;;;16.05;;
12367;SDS011;6248;49.812;6.620;2023-07-02T06:35:22;25.42;;;17.17;;
12367;SDS011;6248;49.812;6.620;2023-07-02T06:37:49;25.73;;;16.33;;
12367;SDS011;6248;49.812;6.620;2023-07-02T06:40:16;25.40;;;16.75;;
12367;SDS011;6248;49.812;6.620;2023-07-02T06:42:43;22.88;;;15.38;;
12367;SDS011;6248;49.812;6.620;2023-07-02T06:45:10;30.13;;;17.00;;
12367;SDS011;6248;49.812;6.620;2023-07-02T06:47:39;22.90;;;15.93;;
12367;SDS011;6248;49.812;6.620;2023-07-02T06:50:06;25.00;;;16.73;;
12367;SDS011;6248;49.812;6.620;2023-07-02T06:52:33;25.58;;;16.85;;
12367;SDS011;6248;49.812;6.620;2023-07-02T06:55:01;27.13;;;17.10;;
12367;SDS011;6248;49.812;6.620;2023-07-02T06:57:28;22.83;;;16.42;;
12367;SDS011;6248;49.812;6.620;2023-07-02T06:59:57;25.35;;;17.02;;
12367;SDS011;6248;49.812;6.620;2023-07-02T07:02:25;26.70;;;15.75;;
12367;SDS011;6248;49.812;6.620;2023-07-02T07:04:53;20.25;;;15.45;;
12367;SDS011;6248;49.812;6.620;2023-07-02T07:07:20;26.65;;;17.33;;
12367;SDS011;6248;49.812;6.620;2023-07-02T07:09:48;25.45;;;16.33;;
12367;SDS011;6248;49.812;6.620;2023-07-02T07:12:15;24.05;;;16.55;;
12367;SDS011;6248;49.812;6.620;2023-07-02T07:14:42;27.50;;;17.10;;
12367;SDS011;6248;49.812;6.620;2023-07-02T07:17:09;28.73;;;17.50;;
12367;SDS011;6248;49.812;6.620;2023-07-02T07:19:36;25.45;;;16.67;;
12367;SDS011;6248;49.812;6.620;2023-07-02T07:22:05;26.80;;;16.88;;
12367;SDS011;6248;49.812;6.620;2023-07-02T07:24:32;28.73;;;17.45;;
12367;SDS011;6248;49.812;6.620;2023-07-02T07:26:59;25.55;;;16.42;;
12367;SDS011;6248;49.812;6.620;2023-07-02T07:29:26;26.48;;;17.33;;
12367;SDS011;6248;49.812;6.620;2023-07-02T07:31:54;25.98;;;17.70;;
12367;SDS011;6248;49.812;6.620;2023-07-02T07:34:21;25.48;;;16.88;;
12367;SDS011;6248;49.812;6.620;2023-07-02T07:36:48;25.38;;;17.60;;
12367;SDS011;6248;49.812;6.620;2023-07-02T07:39:16;31.30;;;17.60;;
12367;SDS011;6248;49.812;6.620;2023-07-02T07:41:46;26.75;;;17.17;;
12367;SDS011;6248;49.812;6.620;2023-07-02T07:44:14;28.48;;;18.55;;
12367;SDS011;6248;49.812;6.620;2023-07-02T07:46:41;22.77;;;17.17;;
12367;SDS011;6248;49.812;6.620;2023-07-02T07:49:08;26.65;;;17.42;;
12367;SDS011;6248;49.812;6.620;2023-07-02T07:51:35;27.42;;;17.60;;
12367;SDS011;6248;49.812;6.620;2023-07-02T07:54:03;24.60;;;17.40;;
12367;SDS011;6248;49.812;6.620;2023-07-02T07:56:31;25.38;;;17.45;;
12367;SDS011;6248;49.812;6.620;2023-07-02T07:58:58;27.05;;;17.23;;
12367;SDS011;6248;49.812;6.620;2023-07-02T08:01:26;25.27;;;16.75;;
12367;SDS011;6248;49.812;6.620;2023-07-02T08:03:53;25.40;;;16.88;;
12367;SDS011;6248;49.812;6.620;2023-07-02T08:06:20;26.52;;;16.80;;
12367;SDS011;6248;49.812;6.620;2023-07-02T08:08:47;27.52;;;17.05;;
12367;SDS011;6248;49.812;6.620;2023-07-02T08:11:14;24.02;;;16.67;;
12367;SDS011;6248;49.812;6.620;2023-07-02T08:13:43;23.95;;;15.98;;
12367;SDS011;6248;49.812;6.620;2023-07-02T08:16:10;22.00;;;15.93;;
12367;SDS011;6248;49.812;6.620;2023-07-02T08:18:38;30.60;;;17.48;;
12367;SDS011;6248;49.812;6.620;2023-07-02T08:21:05;29.50;;;17.25;;
12367;SDS011;6248;49.812;6.620;2023-07-02T08:23:33;27.25;;;17.13;;
12367;SDS011;6248;49.812;6.620;2023-07-02T08:26:00;26.13;;;16.83;;
12367;SDS011;6248;49.812;6.620;2023-07-02T08:28:28;24.27;;;16.83;;
12367;SDS011;6248;49.812;6.620;2023-07-02T08:30:56;26.98;;;16.55;;
12367;SDS011;6248;49.812;6.620;2023-07-02T08:33:24;22.10;;;16.60;;
12367;SDS011;6248;49.812;6.620;2023-07-02T08:35:51;28.45;;;18.10;;
12367;SDS011;6248;49.812;6.620;2023-07-02T08:38:18;26.52;;;16.98;;
12367;SDS011;6248;49.812;6.620;2023-07-02T08:40:45;24.08;;;16.80;;
12367;SDS011;6248;49.812;6.620;2023-07-02T08:43:13;26.55;;;17.70;;
12367;SDS011;6248;49.812;6.620;2023-07-02T08:45:40;25.63;;;17.33;;
12367;SDS011;6248;49.812;6.620;2023-07-02T08:48:09;24.88;;;16.88;;
12367;SDS011;6248;49.812;6.620;2023-07-02T08:50:37;26.40;;;17.27;;
12367;SDS011;6248;49.812;6.620;2023-07-02T08:53:04;24.33;;;16.77;;
12367;SDS011;6248;49.812;6.620;2023-07-02T08:55:31;25.98;;;16.75;;
12367;SDS011;6248;49.812;6.620;2023-07-02T08:57:58;22.27;;;16.77;;
12367;SDS011;6248;49.812;6.620;2023-07-02T09:00:26;23.98;;;15.98;;
12367;SDS011;6248;49.812;6.620;2023-07-02T09:02:56;25.45;;;16.45;;
12367;SDS011;6248;49.812;6.620;2023-07-02T09:05:24;26.45;;;17.15;;
12367;SDS011;6248;49.812;6.620;2023-07-02T09:07:51;24.55;;;15.85;;
12367;SDS011;6248;49.812;6.620;2023-07-02T09:10:25;24.00;;;16.10;;
12367;SDS011;6248;49.812;6.620;2023-07-02T09:13:02;22.50;;;16.02;;
12367;SDS011;6248;49.812;6.620;2023-07-02T09:15:34;26.65;;;16.60;;
12367;SDS011;6248;49.812;6.620;2023-07-02T09:18:01;29.63;;;16.70;;
12367;SDS011;6248;49.812;6.620;2023-07-02T09:20:33;28.85;;;16.73;;
12367;SDS011;6248;49.812;6.620;2023-07-02T09:23:00;21.55;;;16.70;;
12367;SDS011;6248;49.812;6.620;2023-07-02T09:25:33;22.20;;;15.93;;
12367;SDS011;6248;49.812;6.620;2023-07-02T09:28:00;24.15;;;15.65;;
12367;SDS011;6248;49.812;6.620;2023-07-02T09:30:29;21.45;;;14.88;;
12367;SDS011;6248;49.812;6.620;2023-07-02T09:33:05;20.10;;;14.40;;
12367;SDS011;6248;49.812;6.620;2023-07-02T09:35:35;23.00;;;15.73;;
12367;SDS011;6248;49.812;6.620;2023-07-02T09:38:03;19.85;;;14.55;;
12367;SDS011;6248;49.812;6.620;2023-07-02T09:40:30;20.95;;;15.13;;
12367;SDS011;6248;49.812;6.620;2023-07-02T09:42:58;19.40;;;14.23;;
12367;SDS011;6248;49.812;6.620;2023-07-02T09:45:26;21.38;;;14.82;;
12367;SDS011;6248;49.812;6.620;2023-07-02T09:47:53;21.95;;;14.75;;
12367;SDS011;6248;49.812;6.620;2023-07-02T09:50:22;20.08;;;14.57;;
12367;SDS011;6248;49.812;6.620;2023-07-02T09:52:51;21.40;;;14.10;;
12367;SDS011;6248;49.812;6.620;2023-07-02T09:55:19;19.52;;;13.90;;
12367;SDS011;6248;49.812;6.620;2023-07-02T09:57:46;20.48;;;13.65;;
12367;SDS011;6248;49.812;6.620;2023-07-02T10:00:13;20.95;;;12.63;;
12367;SDS011;6248;49.812;6.620;2023-07-02T10:02:41;16.98;;;13.18;;
12367;SDS011;6248;49.812;6.620;2023-07-02T10:05:08;18.25;;;12.98;;
12367;SDS011;6248;49.812;6.620;2023-07-02T10:07:35;19.10;;;13.07;;
12367;SDS011;6248;49.812;6.620;2023-07-02T10:10:04;16.52;;;13.05;;
12367;SDS011;6248;49.812;6.620;2023-07-02T10:12:31;20.60;;;12.43;;
12367;SDS011;6248;49.812;6.620;2023-07-02T10:14:59;14.65;;;11.85;;
12367;SDS011;6248;49.812;6.620;2023-07-02T10:17:27;18.17;;;12.63;;
12367;SDS011;6248;49.812;6.620;2023-07-02T10:19:56;19.52;;;12.70;;
12367;SDS011;6248;49.812;6.620;2023-07-02T10:22:23;16.23;;;11.77;;
12367;SDS011;6248;49.812;6.620;2023-07-02T10:24:51;17.10;;;12.43;;
12367;SDS011;6248;49.812;6.620;2023-07-02T10:27:20;18.50;;;12.68;;
12367;SDS011;6248;49.812;6.620;2023-07-02T10:29:50;15.13;;;11.57;;
12367;SDS011;6248;49.812;6.620;2023-07-02T10:32:25;15.98;;;11.57;;
12367;SDS011;6248;49.812;6.620;2023-07-02T10:34:53;16.63;;;12.23;;
12367;SDS011;6248;49.812;6.620;2023-07-02T10:37:21;16.83;;;11.35;;
12367;SDS011;6248;49.812;6.620;2023-07-02T10:39:49;15.52;;;11.05;;
12367;SDS011;6248;49.812;6.620;2023-07-02T10:42:17;15.32;;;11.60;;
12367;SDS011;6248;49.812;6.620;2023-07-02T10:44:49;16.02;;;11.30;;
12367;SDS011;6248;49.812;6.620;2023-07-02T10:47:17;17.08;;;11.65;;
12367;SDS011;6248;49.812;6.620;2023-07-02T10:49:44;14.68;;;10.80;;
12367;SDS011;6248;49.812;6.620;2023-07-02T10:52:11;15.70;;;11.35;;
12367;SDS011;6248;49.812;6.620;2023-07-02T10:54:39;13.55;;;10.60;;
12367;SDS011;6248;49.812;6.620;2023-07-02T10:57:06;19.02;;;11.10;;
12367;SDS011;6248;49.812;6.620;2023-07-02T10:59:34;17.10;;;12.07;;
12367;SDS011;6248;49.812;6.620;2023-07-02T11:02:02;14.95;;;11.60;;
12367;SDS011;6248;49.812;6.620;2023-07-02T11:04:31;17.48;;;11.52;;
12367;SDS011;6248;49.812;6.620;2023-07-02T11:06:59;13.68;;;11.27;;
12367;SDS011;6248;49.812;6.620;2023-07-02T11:09:26;17.08;;;10.90;;
12367;SDS011;6248;49.812;6.620;2023-07-02T11:11:53;15.63;;;11.90;;
12367;SDS011;6248;49.812;6.620;2023-07-02T11:14:27;13.65;;;10.52;;
12367;SDS011;6248;49.812;6.620;2023-07-02T11:16:55;15.50;;;11.70;;
12367;SDS011;6248;49.812;6.620;2023-07-02T11:19:23;14.40;;;11.63;;
12367;SDS011;6248;49.812;6.620;2023-07-02T11:21:51;14.98;;;11.80;;
12367;SDS011;6248;49.812;6.620;2023-07-02T11:24:26;16.23;;;11.77;;
12367;SDS011;6248;49.812;6.620;2023-07-02T11:26:54;18.13;;;12.50;;
12367;SDS011;6248;49.812;6.620;2023-07-02T11:29:21;18.45;;;11.95;;
12367;SDS011;6248;49.812;6.620;2023-07-02T11:31:48;14.70;;;11.55;;
12367;SDS011;6248;49.812;6.620;2023-07-02T11:34:16;19.38;;;12.00;;
12367;SDS011;6248;49.812;6.620;2023-07-02T11:36:45;16.08;;;11.82;;
12367;SDS011;6248;49.812;6.620;2023-07-02T11:39:12;15.90;;;11.60;;
12367;SDS011;6248;49.812;6.620;2023-07-02T11:41:41;16.55;;;11.68;;
12367;SDS011;6248;49.812;6.620;2023-07-02T11:44:08;14.02;;;11.75;;
12367;SDS011;6248;49.812;6.620;2023-07-02T11:46:36;14.52;;;11.00;;
12367;SDS011;6248;49.812;6.620;2023-07-02T11:49:03;16.40;;;12.25;;
12367;SDS011;6248;49.812;6.620;2023-07-02T11:51:33;18.05;;;12.25;;
12367;SDS011;6248;49.812;6.620;2023-07-02T11:54:02;14.00;;;11.68;;
12367;SDS011;6248;49.812;6.620;2023-07-02T11:56:29;17.42;;;11.65;;
12367;SDS011;6248;49.812;6.620;2023-07-02T11:58:56;16.98;;;11.95;;
12367;SDS011;6248;49.812;6.620;2023-07-02T12:01:23;14.52;;;11.35;;
12367;SDS011;6248;49.812;6.620;2023-07-02T12:03:51;16.40;;;11.57;;
12367;SDS011;6248;49.812;6.620;2023-07-02T12:06:18;17.17;;;11.70;;
12367;SDS011;6248;49.812;6.620;2023-07-02T12:08:45;13.88;;;12.00;;
12367;SDS011;6248;49.812;6.620;2023-07-02T12:11:14;15.23;;;10.95;;
12367;SDS011;6248;49.812;6.620;2023-07-02T12:13:41;14.82;;;10.65;;
12367;SDS011;6248;49.812;6.620;2023-07-02T12:16:08;16.80;;;11.35;;
12367;SDS011;6248;49.812;6.620;2023-07-02T12:18:35;14.23;;;11.52;;
12367;SDS011;6248;49.812;6.620;2023-07-02T12:21:02;15.20;;;11.02;;
12367;SDS011;6248;49.812;6.620;2023-07-02T12:23:30;16.35;;;11.52;;
12367;SDS011;6248;49.812;6.620;2023-07-02T12:25:57;16.05;;;11.48;;
12367;SDS011;6248;49.812;6.620;2023-07-02T12:28:25;16.90;;;11.50;;
12367;SDS011;6248;49.812;6.620;2023-07-02T12:30:52;17.38;;;11.98;;
12367;SDS011;6248;49.812;6.620;2023-07-02T12:33:20;18.73;;;12.30;;
12367;SDS011;6248;49.812;6.620;2023-07-02T12:35:47;15.48;;;11.77;;
12367;SDS011;6248;49.812;6.620;2023-07-02T12:38:14;19.63;;;12.30;;
12367;SDS011;6248;49.812;6.620;2023-07-02T12:40:41;14.95;;;11.15;;
12367;SDS011;6248;49.812;6.620;2023-07-02T12:43:09;18.88;;;12.23;;
12367;SDS011;6248;49.812;6.620;2023-07-02T12:45:37;14.63;;;11.35;;
12367;SDS011;6248;49.812;6.620;2023-07-02T12:48:04;16.85;;;11.48;;
12367;SDS011;6248;49.812;6.620;2023-07-02T12:50:31;15.57;;;12.00;;
12367;SDS011;6248;49.812;6.620;2023-07-02T12:52:59;16.27;;;11.55;;
12367;SDS011;6248;49.812;6.620;2023-07-02T12:55:26;16.33;;;11.35;;
12367;SDS011;6248;49.812;6.620;2023-07-02T12:57:53;13.80;;;10.93;;
12367;SDS011;6248;49.812;6.620;2023-07-02T13:00:20;18.27;;;12.20;;
12367;SDS011;6248;49.812;6.620;2023-07-02T13:02:49;15.95;;;11.20;;
12367;SDS011;6248;49.812;6.620;2023-07-02T13:05:16;13.13;;;10.52;;
12367;SDS011;6248;49.812;6.620;2023-07-02T13:07:43;14.15;;;10.38;;
12367;SDS011;6248;49.812;6.620;2023-07-02T13:10:10;16.30;;;10.55;;
12367;SDS011;6248;49.812;6.620;2023-07-02T13:12:37;13.65;;;10.27;;
12367;SDS011;6248;49.812;6.620;2023-07-02T13:15:05;14.98;;;10.90;;
12367;SDS011;6248;49.812;6.620;2023-07-02T13:17:32;14.13;;;10.88;;
12367;SDS011;6248;49.812;6.620;2023-07-02T13:20:01;16.65;;;12.13;;
12367;SDS011;6248;49.812;6.620;2023-07-02T13:22:29;13.73;;;10.85;;
12367;SDS011;6248;49.812;6.620;2023-07-02T13:24:56;16.65;;;10.93;;
12367;SDS011;6248;49.812;6.620;2023-07-02T13:27:23;14.55;;;10.18;;
12367;SDS011;6248;49.812;6.620;2023-07-02T13:29:51;16.42;;;11.15;;
12367;SDS011;6248;49.812;6.620;2023-07-02T13:32:18;14.52;;;10.43;;
12367;SDS011;6248;49.812;6.620;2023-07-02T13:34:45;13.88;;;10.25;;
12367;SDS011;6248;49.812;6.620;2023-07-02T13:37:13;18.35;;;10.30;;
12367;SDS011;6248;49.812;6.620;2023-07-02T13:39:43;14.35;;;10.57;;
12367;SDS011;6248;49.812;6.620;2023-07-02T13:42:10;16.30;;;10.40;;
12367;SDS011;6248;49.812;6.620;2023-07-02T13:44:37;16.55;;;9.82;;
12367;SDS011;6248;49.812;6.620;2023-07-02T13:47:05;13.88;;;9.85;;
12367;SDS011;6248;49.812;6.620;2023-07-02T13:49:32;12.38;;;10.00;;
12367;SDS011;6248;49.812;6.620;2023-07-02T13:51:59;13.40;;;10.18;;
12367;SDS011;6248;49.812;6.620;2023-07-02T13:54:28;12.40;;;9.95;;
12367;SDS011;6248;49.812;6.620;2023-07-02T13:56:55;13.45;;;10.07;;
12367;SDS011;6248;49.812;6.620;2023-07-02T13:59:25;16.52;;;10.48;;
12367;SDS011;6248;49.812;6.620;2023-07-02T14:01:52;12.88;;;9.85;;
12367;SDS011;6248;49.812;6.620;2023-07-02T14:04:19;14.45;;;10.93;;
12367;SDS011;6248;49.812;6.620;2023-07-02T14:06:46;13.93;;;9.85;;
12367;SDS011;6248;49.812;6.620;2023-07-02T14:09:13;15.18;;;10.48;;
12367;SDS011;6248;49.812;6.620;2023-07-02T14:11:41;12.30;;;10.07;;
12367;SDS011;6248;49.812;6.620;2023-07-02T14:14:09;13.20;;;10.25;;
12367;SDS011;6248;49.812;6.620;2023-07-02T14:16:37;14.30;;;9.48;;
12367;SDS011;6248;49.812;6.620;2023-07-02T14:19:05;15.05;;;10.25;;
12367;SDS011;6248;49.812;6.620;2023-07-02T14:21:33;16.17;;;10.57;;
12367;SDS011;6248;49.812;6.620;2023-07-02T14:24:00;13.48;;;10.50;;
12367;SDS011;6248;49.812;6.620;2023-07-02T14:26:28;14.45;;;10.30;;
12367;SDS011;6248;49.812;6.620;2023-07-02T14:28:55;13.65;;;10.15;;
12367;SDS011;6248;49.812;6.620;2023-07-02T14:31:23;16.58;;;10.40;;
12367;SDS011;6248;49.812;6.620;2023-07-02T14:33:51;14.25;;;10.38;;
12367;SDS011;6248;49.812;6.620;2023-07-02T14:36:18;14.65;;;10.10;;
12367;SDS011;6248;49.812;6.620;2023-07-02T14:38:46;14.15;;;9.90;;
12367;SDS011;6248;49.812;6.620;2023-07-02T14:41:13;15.98;;;10.60;;
12367;SDS011;6248;49.812;6.620;2023-07-02T14:43:40;14.90;;;10.38;;